AirNav   Everest Fuels
 
 1697 users online  

8M6 Mc Ville Municipal Airport
Mc Ville, North Dakota, USA

GOING TO MC VILLE?


FAA INFORMATION EFFECTIVE 16 JULY 2020

Location

FAA Identifier: 8M6
Lat/Long: 47-46-13.1400N 098-11-05.6900W
47-46.219000N 098-11.094833W
47.7703167,-98.1849139
(estimated)
Elevation: 1473 ft. / 449 m (estimated)
Variation: 07E (1985)
From city: 1 mile NW of MC VILLE, ND
Time zone: UTC -5 (UTC -6 during Standard Time)
Zip code: 58254

Airport Operations

Airport use: Open to the public
Activation date: 11/1947
Control tower: no
ARTCC: MINNEAPOLIS CENTER
FSS: GRAND FORKS FLIGHT SERVICE STATION
NOTAMs facility: GFK (NOTAM-D service available)
Attendance: UNATNDD
Wind indicator: yes
Segmented circle: no
Lights: ACTIVATE LIRL RY 13/31 - CTAF.

Airport Communications

CTAF: 122.9

Nearby radio navigation aids

VOR radial/distance  VOR name  Freq  Var
DVLr118/35.8DEVILS LAKE VOR/DME111.0007E

Airport Services

Parking: tiedowns
Airframe service: NONE
Powerplant service: NONE
Bottled oxygen: NONE
Bulk oxygen: NONE

Runway Information

Runway 18/36

Dimensions: 2500 x 90 ft. / 762 x 27 m
Surface: turf, in good condition
RUNWAY 18  RUNWAY 36
Latitude: 47-46.416333N47-46.005167N
Longitude: 098-10.989333W098-10.989333W
Elevation: 1473.0 ft.1473.0 ft.
Traffic pattern: leftleft
Markings: nonenone
Runway end identifier lights: nono
Obstructions: 18 ft. road, 95 ft. left of centerline
HAS ROAD 40 FT FM THLD; L AND R OF CNTRLN; APCH RATIO 2:1.
18 ft. road, 105 ft. right of centerline
HAS ROAD 48 FT FM THLD; L AND R OF CNTRLN; APCH RATIO 2:1.

Runway 13/31

Dimensions: 2277 x 100 ft. / 694 x 30 m
200 FT TURF STWY ON NW END & 500 FT TURF STWY ON SE END.
Surface: turf, in good condition
TURF SFC ROLLING.
Runway edge lights: low intensity
RUNWAY 13  RUNWAY 31
Latitude: 47-46.381667N47-46.074500N
Longitude: 098-11.369500W098-11.051667W
Elevation: 1461.0 ft.1463.0 ft.
Traffic pattern: leftleft
Runway heading: 138 magnetic, 145 true318 magnetic, 325 true
Markings: nonenone
Runway end identifier lights: nono
Obstructions: 19 ft. road, 210 ft. from runway, 150 ft. both sides of centerline, 11:1 slope to clear18 ft. bldg, 275 ft. from runway, 125 ft. left of centerline, 15:1 slope to clear

Airport Ownership and Management from official FAA records

Ownership: Publicly-owned
Owner: CITY OF MC VILLE
PO BOX 275
MC VILLE, ND 58254
Phone 701-322-4343
CHANDA ARNESON - CITY AUDITOR 701-322-4343.
Manager: NEIL REITEN
PO BOX 275
MCVILLE, ND 58254
Phone (701) 739-1345

Airport Operational Statistics

Aircraft based on the field: 3
Single engine airplanes: 3
    
Aircraft operations: avg 68/month *
62% transient general aviation
37% local general aviation
1% air taxi
* for 12-month period ending 19 May 2020

Additional Remarks

CALL AMGR TO CONFIRM SNOW REMOVAL 701-270-2820.
FOR CD CTC MINNEAPOLIS ARTCC AT 651-463-5588.
RWY 36 HAS MULTIPLE 110 FT BLDGS 1400 FT FM THLD; L AND R OF CNTRLN; APCH RATIO 12:1.

Instrument Procedures

There are no published instrument procedures at 8M6.

Some nearby airports with instrument procedures:

5L0 - Lakota Municipal Airport (17 nm N)
S32 - Cooperstown Municipal Airport (21 nm S)
4V4 - Northwood Municipal Airport-Vince Field (24 nm E)
KRDR - Grand Forks Air Force Base (34 nm E)
KDVL - Devils Lake Regional Airport (36 nm NW)
 
Loc | Ops | Rwys | IFR | FBO | Links
Com | Nav | Svcs | Stats | Notes

Bismarck Aero Center
AirBoss

 
Area around 8M6 (Mc Ville Municipal Airport)
 
Road maps at: MapQuest Bing Google
 
Aerial photo
WARNING: Photo may not be current or correct
Aerial photo of 8M6 (Mc Ville Municipal Airport)
Do you have a better or more recent aerial photo of Mc Ville Municipal Airport that you would like to share? If so, please send us your photo.

 
Sectional chart

 
Airport distance calculator
Flying to Mc Ville Municipal Airport? Find the distance to fly.

From to 8M6

Sunrise and sunset
Times for 04-Aug-2020
 Local
(UTC-5)
 Zulu
(UTC)
Morning civil twilight05:4010:40
Sunrise06:1611:16
Sunset21:0202:02
Evening civil twilight21:3702:37

Current date and time
Zulu (UTC)  04-Aug-2020 18:49:02
Local (UTC-5)  04-Aug-2020 13:49:02
 
METAR
KS32 
21nm S 
041835Z AUTO VRB06G14KT 10SM SCT046 24/12 A3011 RMK AO2
KRDR 
34nm E 
041756Z AUTO 17009KT 10SM FEW100 FEW150 BKN180 23/12 A3011 RMK AO2 SLP201 T02260122 10232 20107 58008 $
KDVL 
36nm NW 
041756Z AUTO 16009G14KT 10SM CLR 23/11 A3011 RMK AO2 SLP774 T02280111 10228 20156 58005
KGFK 
42nm E 
041753Z 16008KT 10SM FEW050 SCT150 BKN250 23/10 A3010 RMK AO2 SLP195 T02280100 10239 20117 58010
TAF
KRDR 
34nm E 
041800Z 0418/0524 14009KT 9999 FEW100 QNH2997INS BECMG 0505/0506 15006KT 9999 SCT035 QNH2994INS BECMG 0507/0508 16006KT 9999 BKN050 QNH2993INS BECMG 0511/0512 16006KT 9000 -SHRA BKN025 QNH2992INS BECMG 0515/0516 17006KT 9999 NSW BKN020 QNH2991INS TX25/0421Z TN14/0508Z
KDVL 
36nm NW 
041739Z 0418/0518 18011KT P6SM BKN250 FM050600 16008KT 6SM BR VCSH BKN080 FM051200 14005KT P6SM BKN035
KGFK 
42nm E 
041739Z 0418/0518 17008KT P6SM FEW050 BKN250 FM050000 16006KT P6SM BKN100
NOTAMs
Click for the latest NOTAMs
NOTAMs are issued by the DoD/FAA and will open in a separate window not controlled by AirNav.

 

 
 

Would you like to see your business listed on this page?

 If your business provides an interesting product or service to pilots, flight crews, aircraft, or users of the Mc Ville Municipal Airport, you should consider listing it here.  To start the listing process, click on the button below
 
Add a business
 

Other Pages about Mc Ville Municipal Airport

Update a link
 
Copyright © AirNav, LLC. All rights reserved. Privacy Policy  Contact